Time;durP1;ratioP1;P1;durP2;ratioP2;P2;SDS_P1;SDS_P2;PMS_P1;PMS_P2;Temp;Humidity;BMP_temperature;BMP_pressure;BME280_temperature;BME280_humidity;BME280_pressure;Samples;Min_cycle;Max_cycle;Signal;HPM_P1;HPM_P2
2021/04/17 00:00:09;;;;;;;11.85;7.55;;;;;;;8.77;96.05;98746.52;1793697;78;21211;-62
2021/04/17 00:02:39;;;;;;;10.75;7.85;;;;;;;8.84;96.00;98748.77;1794126;80;21179;-61
2021/04/17 00:05:10;;;;;;;10.50;7.33;;;;;;;8.88;95.79;98743.70;1782636;79;21297;-60
2021/04/17 00:07:40;;;;;;;11.45;7.40;;;;;;;8.87;95.36;98752.24;1781398;79;21140;-60
2021/04/17 00:10:09;;;;;;;11.80;8.43;;;;;;;8.85;95.11;98751.38;1781593;80;21255;-60
2021/04/17 00:12:37;;;;;;;12.80;7.42;;;;;;;8.74;94.54;98746.91;1781446;80;21311;-61
2021/04/17 00:15:08;;;;;;;11.65;7.60;;;;;;;8.60;94.66;98745.00;1781431;80;21129;-60
2021/04/17 00:17:36;;;;;;;10.82;7.92;;;;;;;8.58;94.95;98743.25;1780892;79;21281;-59
2021/04/17 00:20:06;;;;;;;11.70;8.05;;;;;;;8.60;94.96;98747.97;1780872;80;21132;-59
2021/04/17 00:22:34;;;;;;;11.75;7.75;;;;;;;8.58;95.07;98749.68;1781022;79;21758;-58
2021/04/17 00:25:03;;;;;;;12.00;8.90;;;;;;;8.63;95.20;98745.05;1780852;80;21105;-60
2021/04/17 00:27:30;;;;;;;11.40;8.03;;;;;;;8.68;95.15;98745.98;1781174;80;21693;-59
2021/04/17 00:29:58;;;;;;;15.43;9.28;;;;;;;8.71;94.90;98742.59;1781035;80;21318;-61
2021/04/17 00:32:25;;;;;;;15.50;9.25;;;;;;;8.70;94.81;98745.98;1780939;80;21263;-60
2021/04/17 00:34:54;;;;;;;15.13;9.85;;;;;;;8.74;94.83;98754.20;1780870;80;21152;-60
2021/04/17 00:37:22;;;;;;;15.05;9.63;;;;;;;8.78;94.73;98753.84;1780843;80;21141;-60
2021/04/17 00:39:50;;;;;;;14.10;9.25;;;;;;;8.78;94.58;98749.56;1780813;80;21136;-61
2021/04/17 00:42:18;;;;;;;16.77;9.60;;;;;;;8.79;94.53;98753.84;1781131;80;21345;-60
2021/04/17 00:44:46;;;;;;;13.90;8.63;;;;;;;8.81;94.39;98759.89;1781116;80;21278;-60
2021/04/17 00:47:15;;;;;;;12.45;9.20;;;;;;;8.84;94.28;98756.49;1781071;80;21286;-61
2021/04/17 00:49:45;;;;;;;14.95;10.23;;;;;;;8.82;94.18;98751.73;1779652;80;21129;-61
2021/04/17 00:52:13;;;;;;;13.62;10.08;;;;;;;8.84;94.08;98754.78;1780858;80;21163;-60
2021/04/17 00:54:42;;;;;;;16.90;11.45;;;;;;;8.86;94.00;98756.96;1780903;80;21170;-61
2021/04/17 00:57:10;;;;;;;14.07;10.32;;;;;;;8.85;93.88;98764.64;1781129;79;21808;-62
2021/04/17 00:59:37;;;;;;;9.83;6.28;;;;;;;8.82;93.83;98760.75;1781108;79;21113;-61
2021/04/17 01:02:06;;;;;;;8.50;4.95;;;;;;;8.66;93.69;98760.52;1781114;79;21117;-60
2021/04/17 01:04:42;;;;;;;5.92;4.72;;;;;;;8.31;93.45;98765.06;1772082;80;21322;-60
2021/04/17 01:07:27;;;;;;;7.30;5.80;;;;;;;8.01;93.83;98769.25;1764925;81;21281;-61
2021/04/17 01:10:09;;;;;;;8.05;5.30;;;;;;;7.79;94.43;98766.73;1765024;80;21141;-59
2021/04/17 01:12:45;;;;;;;6.85;4.97;;;;;;;7.53;95.08;98772.61;1764842;80;21298;-61
2021/04/17 01:15:19;;;;;;;6.50;4.22;;;;;;;7.26;95.71;98765.23;1765015;80;21140;-60
2021/04/17 01:17:51;;;;;;;6.28;4.20;;;;;;;7.11;96.54;98769.62;1764947;80;21172;-61
2021/04/17 01:20:31;;;;;;;8.60;4.40;;;;;;;6.99;96.98;98765.08;1764777;80;21173;-60
2021/04/17 01:23:26;;;;;;;6.40;4.72;;;;;;;6.82;97.50;98775.38;1764800;80;21164;-61
2021/04/17 01:26:02;;;;;;;7.75;4.97;;;;;;;6.67;98.42;98774.64;1764821;80;21598;-61
2021/04/17 01:28:35;;;;;;;7.33;5.08;;;;;;;6.58;98.90;98766.71;1764816;80;21124;-60
2021/04/17 01:31:06;;;;;;;7.00;4.78;;;;;;;6.50;99.23;98771.23;1764734;80;21171;-60
2021/04/17 01:33:39;;;;;;;9.48;5.05;;;;;;;6.47;99.71;98774.16;1764881;80;21171;-60
2021/04/17 01:36:09;;;;;;;7.33;5.50;;;;;;;6.40;99.92;98773.55;1764936;80;21128;-59
2021/04/17 01:38:51;;;;;;;6.83;4.90;;;;;;;6.32;100.00;98781.47;1764941;80;21532;-60
2021/04/17 01:41:49;;;;;;;8.23;4.97;;;;;;;6.24;100.00;98782.56;1764062;80;21582;-60
2021/04/17 01:44:29;;;;;;;7.08;4.85;;;;;;;6.20;100.00;98787.14;1764781;80;21140;-59
2021/04/17 01:47:02;;;;;;;9.45;5.80;;;;;;;6.18;100.00;98782.39;1764977;80;21148;-59
2021/04/17 01:49:33;;;;;;;7.33;5.25;;;;;;;6.18;100.00;98787.52;1764966;80;21297;-58
2021/04/17 01:52:02;;;;;;;7.30;5.60;;;;;;;6.12;100.00;98780.55;1765051;80;21281;-59
2021/04/17 01:54:36;;;;;;;7.83;5.47;;;;;;;6.07;100.00;98780.84;1764708;80;21191;-59
2021/04/17 01:57:05;;;;;;;9.73;5.53;;;;;;;6.04;100.00;98785.89;1764694;80;21136;-60
2021/04/17 01:59:36;;;;;;;7.20;5.67;;;;;;;6.02;100.00;98781.13;1764867;80;21614;-59
2021/04/17 02:02:06;;;;;;;7.00;5.30;;;;;;;6.01;100.00;98779.41;1765104;81;21286;-59
2021/04/17 02:04:35;;;;;;;9.25;5.83;;;;;;;6.04;100.00;98784.19;1764850;80;21595;-59
2021/04/17 02:07:04;;;;;;;9.20;6.20;;;;;;;6.08;100.00;98787.68;1849587;77;21154;-60
2021/04/17 02:09:32;;;;;;;9.45;6.97;;;;;;;6.07;100.00;98786.83;1855247;77;21157;-59
2021/04/17 02:12:01;;;;;;;10.95;5.97;;;;;;;6.06;100.00;98785.52;1855254;77;21304;-60
2021/04/17 02:14:30;;;;;;;8.93;5.67;;;;;;;6.03;100.00;98781.58;1854961;77;21138;-60
2021/04/17 02:17:15;;;;;;;10.65;5.75;;;;;;;6.04;100.00;98793.16;1783007;80;21300;-60
2021/04/17 02:20:07;;;;;;;11.18;5.97;;;;;;;6.06;100.00;98785.52;1784882;80;21393;-60
2021/04/17 02:22:36;;;;;;;8.85;6.30;;;;;;;6.07;100.00;98789.38;1731875;80;21158;-59
2021/04/17 02:25:05;;;;;;;9.50;6.60;;;;;;;6.06;100.00;98795.77;1784755;80;21542;-60
2021/04/17 02:27:33;;;;;;;8.08;4.95;;;;;;;6.05;100.00;98802.98;1783186;80;21537;-61
2021/04/17 02:30:01;;;;;;;7.70;4.90;;;;;;;6.05;100.00;98806.83;1784577;80;21138;-59
2021/04/17 02:32:28;;;;;;;7.95;5.80;;;;;;;6.00;100.00;98805.84;1783176;80;21126;-60
2021/04/17 02:34:56;;;;;;;7.92;4.83;;;;;;;5.99;100.00;98810.52;1784773;80;21158;-60
2021/04/17 02:37:24;;;;;;;6.95;4.85;;;;;;;5.99;100.00;98815.64;1783009;80;21280;-60
2021/04/17 02:39:52;;;;;;;8.58;5.70;;;;;;;5.97;100.00;98814.73;1784594;80;21209;-60
2021/04/17 02:42:20;;;;;;;8.78;5.12;;;;;;;5.95;100.00;98817.23;1782932;80;21174;-61
2021/04/17 02:44:47;;;;;;;11.48;5.92;;;;;;;5.95;100.00;98817.23;1784552;80;21370;-62
2021/04/17 02:47:17;;;;;;;9.73;5.62;;;;;;;5.92;100.00;98813.28;1783350;80;21166;-61
2021/04/17 02:49:45;;;;;;;12.33;7.05;;;;;;;5.90;100.00;98818.77;1784585;80;21699;-61
2021/04/17 02:52:12;;;;;;;20.43;6.58;;;;;;;5.90;100.00;98818.77;1783015;80;21142;-60
2021/04/17 02:54:41;;;;;;;12.03;6.25;;;;;;;5.92;100.00;98820.10;1784596;80;21130;-59
2021/04/17 02:57:09;;;;;;;10.70;6.10;;;;;;;5.96;100.00;98823.25;1783085;80;21167;-59
2021/04/17 02:59:38;;;;;;;9.25;5.65;;;;;;;5.99;100.00;98824.19;1784907;80;21605;-60
2021/04/17 03:02:06;;;;;;;10.72;6.12;;;;;;;6.03;100.00;98831.14;1783155;80;21146;-60
2021/04/17 03:04:34;;;;;;;9.20;5.97;;;;;;;6.05;100.00;98833.30;1783378;80;21316;-60
2021/04/17 03:07:01;;;;;;;7.22;4.92;;;;;;;6.10;100.00;98837.27;1781506;80;21265;-61
2021/04/17 03:09:29;;;;;;;9.38;6.30;;;;;;;6.15;100.00;98839.96;1779987;81;21297;-59
2021/04/17 03:11:57;;;;;;;8.43;5.83;;;;;;;6.19;100.00;98842.66;1851946;77;21161;-60
2021/04/17 03:14:25;;;;;;;8.23;5.35;;;;;;;6.23;100.00;98839.74;1851856;77;21280;-61
2021/04/17 03:16:53;;;;;;;7.37;5.15;;;;;;;6.24;100.00;98845.34;1780157;80;21300;-60
2021/04/17 03:19:20;;;;;;;7.65;5.67;;;;;;;6.24;100.00;98846.20;1779980;80;21119;-60
2021/04/17 03:21:49;;;;;;;10.98;6.87;;;;;;;6.26;100.00;98850.09;1851682;77;21130;-59
2021/04/17 03:24:17;;;;;;;9.83;6.97;;;;;;;6.25;100.00;98842.80;1851890;77;21103;-59
2021/04/17 03:26:45;;;;;;;9.48;6.62;;;;;;;6.25;100.00;98842.80;1779856;80;21265;-59
2021/04/17 03:29:16;;;;;;;11.28;7.87;;;;;;;6.36;100.00;98853.74;1779860;81;21135;-60
2021/04/17 03:31:45;;;;;;;11.12;7.20;;;;;;;6.55;100.00;98853.81;1851829;77;21295;-60
2021/04/17 03:34:13;;;;;;;11.75;7.80;;;;;;;6.73;100.00;98853.84;1851887;77;21549;-60
2021/04/17 03:36:41;;;;;;;13.58;8.38;;;;;;;6.91;100.00;98856.40;1851585;77;21300;-60
2021/04/17 03:39:09;;;;;;;11.70;7.62;;;;;;;7.08;100.00;98856.81;1779991;81;21276;-61
2021/04/17 03:41:37;;;;;;;12.25;7.72;;;;;;;7.21;100.00;98859.23;1780229;81;21146;-61
2021/04/17 03:44:06;;;;;;;11.12;7.17;;;;;;;7.31;100.00;98858.61;1779894;81;21119;-61
2021/04/17 03:46:34;;;;;;;10.93;7.40;;;;;;;7.40;100.00;98865.20;1780023;80;21108;-61
2021/04/17 03:49:03;;;;;;;11.60;7.37;;;;;;;7.51;100.00;98867.61;1779951;80;21228;-61
2021/04/17 03:51:31;;;;;;;11.90;8.10;;;;;;;7.57;100.00;98874.15;1851728;77;21402;-62
2021/04/17 03:53:59;;;;;;;11.35;7.67;;;;;;;7.58;100.00;98878.47;1852022;77;21165;-60
2021/04/17 03:56:26;;;;;;;10.88;7.70;;;;;;;7.65;100.00;98881.16;1779941;80;21289;-61
2021/04/17 03:58:54;;;;;;;12.68;8.75;;;;;;;7.69;100.00;98888.11;1851854;77;21138;-61
2021/04/17 04:01:23;;;;;;;14.85;11.28;;;;;;;7.76;100.00;98887.38;1851748;77;21566;-61
2021/04/17 04:03:51;;;;;;;15.48;11.25;;;;;;;7.78;100.00;98890.42;1780271;80;21696;-60
2021/04/17 04:06:19;;;;;;;15.10;11.22;;;;;;;7.81;100.00;98890.91;1780250;80;21696;-62
2021/04/17 04:08:46;;;;;;;16.15;11.73;;;;;;;7.81;100.00;98893.08;1851930;77;21288;-60
2021/04/17 04:11:14;;;;;;;14.33;11.20;;;;;;;7.81;100.00;98898.22;1780283;80;21300;-62
2021/04/17 04:13:42;;;;;;;14.18;10.95;;;;;;;7.83;99.76;98902.08;1780152;80;21287;-60
2021/04/17 04:16:10;;;;;;;17.35;11.88;;;;;;;7.78;99.07;98900.70;1780380;80;21273;-61
2021/04/17 04:18:38;;;;;;;13.68;10.18;;;;;;;7.73;98.94;98902.73;1780039;80;21142;-60
2021/04/17 04:21:06;;;;;;;13.75;10.75;;;;;;;7.67;98.48;98906.03;1851943;77;21273;-59
2021/04/17 04:23:34;;;;;;;14.75;10.95;;;;;;;7.63;98.40;98911.92;1780120;80;21296;-60
2021/04/17 04:26:01;;;;;;;13.58;9.70;;;;;;;7.60;98.32;98917.86;1780201;80;21162;-61
2021/04/17 04:28:30;;;;;;;13.00;9.80;;;;;;;7.65;98.10;98914.13;1851749;77;21150;-61
2021/04/17 04:30:59;;;;;;;13.65;10.23;;;;;;;7.65;97.62;98919.68;1851965;77;21154;-60
2021/04/17 04:33:26;;;;;;;12.85;9.65;;;;;;;7.66;97.41;98918.83;1851714;77;21212;-61
2021/04/17 04:35:54;;;;;;;12.80;10.08;;;;;;;7.67;96.77;98924.02;1780090;80;21292;-60
2021/04/17 04:38:22;;;;;;;11.65;9.20;;;;;;;7.60;96.34;98930.70;1851943;77;21142;-62
2021/04/17 04:40:50;;;;;;;12.43;8.50;;;;;;;7.52;96.13;98928.81;1851995;77;21295;-62
2021/04/17 04:43:18;;;;;;;12.23;8.65;;;;;;;7.47;96.36;98930.41;1851965;77;21279;-63
2021/04/17 04:45:45;;;;;;;11.60;8.38;;;;;;;7.46;96.55;98933.41;1780242;80;21179;-63
2021/04/17 04:48:14;;;;;;;11.43;8.35;;;;;;;7.50;96.76;98936.47;1851849;77;21288;-60
2021/04/17 04:50:42;;;;;;;11.45;8.35;;;;;;;7.53;96.75;98936.95;1851719;77;21106;-59
2021/04/17 04:53:10;;;;;;;11.03;7.60;;;;;;;7.57;96.62;98935.78;1851931;77;21126;-59
2021/04/17 04:55:38;;;;;;;10.82;7.17;;;;;;;7.63;96.47;98939.31;1851921;77;21296;-61
2021/04/17 04:58:05;;;;;;;10.00;7.20;;;;;;;7.66;96.32;98943.23;1780222;80;21182;-59
2021/04/17 05:00:33;;;;;;;11.28;8.08;;;;;;;7.69;96.01;98944.19;1780009;80;21146;-60
2021/04/17 05:03:01;;;;;;;11.38;7.53;;;;;;;7.74;95.79;98950.72;1779962;80;21143;-60
2021/04/17 05:05:29;;;;;;;8.83;6.72;;;;;;;7.77;95.55;98946.92;1782842;80;21575;-59
2021/04/17 05:07:57;;;;;;;10.70;7.08;;;;;;;7.85;95.55;98954.38;1789489;80;21114;-59
2021/04/17 05:10:25;;;;;;;10.05;7.17;;;;;;;7.87;94.90;98954.42;1785758;80;21158;-61
2021/04/17 05:12:53;;;;;;;13.13;8.43;;;;;;;7.90;95.05;98950.20;1789336;80;21304;-64
2021/04/17 05:15:21;;;;;;;8.95;6.37;;;;;;;7.98;94.93;98961.50;1785799;80;21138;-62
2021/04/17 05:17:49;;;;;;;8.38;6.03;;;;;;;8.05;94.64;98960.80;1789376;80;21127;-60
2021/04/17 05:20:17;;;;;;;9.55;6.72;;;;;;;8.14;94.60;98964.39;1786093;80;21142;-59
2021/04/17 05:22:44;;;;;;;9.78;6.08;;;;;;;8.24;94.24;98966.31;1789568;80;21146;-62
2021/04/17 05:25:13;;;;;;;8.43;5.97;;;;;;;8.30;94.08;98967.73;1785939;80;21391;-59
2021/04/17 05:27:41;;;;;;;8.88;5.80;;;;;;;8.37;93.74;98972.17;1789416;80;21142;-60
2021/04/17 05:30:10;;;;;;;8.80;5.97;;;;;;;8.41;93.04;98972.70;1785749;80;21145;-61
2021/04/17 05:32:41;;;;;;;7.95;5.58;;;;;;;8.43;93.03;98979.17;1789584;80;21292;-61
2021/04/17 05:35:11;;;;;;;7.83;5.25;;;;;;;8.45;92.72;98980.93;1785956;80;21320;-63
2021/04/17 05:37:38;;;;;;;9.13;5.00;;;;;;;8.43;92.08;98983.89;1789501;80;21311;-61
2021/04/17 05:40:08;;;;;;;7.37;5.55;;;;;;;8.45;91.86;98980.93;1785848;80;21158;-63
2021/04/17 05:42:36;;;;;;;9.60;5.87;;;;;;;8.54;91.98;98986.66;1789348;80;21170;-62
2021/04/17 05:45:05;;;;;;;7.97;5.10;;;;;;;8.59;91.81;98982.47;1785929;80;21181;-63
2021/04/17 05:47:32;;;;;;;8.58;5.72;;;;;;;8.64;91.65;98993.72;1789286;80;21320;-61
2021/04/17 05:50:01;;;;;;;9.43;6.17;;;;;;;8.63;90.91;98990.70;1785721;80;21173;-63
2021/04/17 05:52:30;;;;;;;7.92;5.85;;;;;;;8.63;90.75;98993.70;1789335;80;21292;-63
2021/04/17 05:54:59;;;;;;;10.70;7.60;;;;;;;8.62;90.35;98995.81;1785901;80;21311;-62
2021/04/17 05:57:27;;;;;;;11.75;8.03;;;;;;;8.57;90.08;98996.14;1789356;80;21158;-65
2021/04/17 05:59:54;;;;;;;11.15;8.48;;;;;;;8.54;90.05;99004.66;1786103;80;21308;-63
2021/04/17 06:02:23;;;;;;;15.05;10.30;;;;;;;8.56;89.71;99004.70;1789353;80;21216;-60
2021/04/17 06:04:51;;;;;;;13.98;9.65;;;;;;;8.55;89.52;99009.38;1785238;80;21169;-62
2021/04/17 06:07:21;;;;;;;14.15;8.78;;;;;;;8.51;89.10;99013.61;1812880;77;21142;-61
2021/04/17 06:09:50;;;;;;;11.75;8.20;;;;;;;8.45;88.85;99010.93;1796874;78;21118;-63
2021/04/17 06:12:18;;;;;;;15.58;9.20;;;;;;;8.40;88.54;99011.26;1797100;78;21623;-62
2021/04/17 06:14:46;;;;;;;12.70;9.35;;;;;;;8.24;88.69;99012.59;1797065;80;21151;-61
2021/04/17 06:17:13;;;;;;;12.45;9.28;;;;;;;8.19;88.97;99018.05;1796888;78;21150;-60
2021/04/17 06:19:41;;;;;;;11.30;8.88;;;;;;;8.12;88.92;99023.92;1796887;78;21267;-62
2021/04/17 06:22:11;;;;;;;10.98;8.20;;;;;;;8.09;88.92;99023.44;1796850;79;21142;-62
2021/04/17 06:24:38;;;;;;;9.98;7.72;;;;;;;8.12;88.91;99027.77;1796828;78;21304;-63
2021/04/17 06:27:07;;;;;;;10.38;7.75;;;;;;;8.14;89.01;99032.12;1797035;78;21142;-63
2021/04/17 06:29:34;;;;;;;11.22;7.72;;;;;;;8.17;89.20;99033.88;1797027;78;21338;-63
2021/04/17 06:32:04;;;;;;;10.95;7.80;;;;;;;8.17;89.20;99029.61;1796838;78;21307;-64
2021/04/17 06:34:32;;;;;;;10.35;7.33;;;;;;;8.23;89.44;99027.58;1796784;78;21145;-64
2021/04/17 06:37:00;;;;;;;10.35;7.22;;;;;;;8.25;89.00;99035.77;1796865;78;21107;-64
2021/04/17 06:39:27;;;;;;;10.08;6.47;;;;;;;8.25;88.73;99037.48;1799608;79;21154;-63
2021/04/17 06:41:58;;;;;;;8.25;6.08;;;;;;;8.27;88.49;99038.39;1798344;79;21383;-61
2021/04/17 06:44:27;;;;;;;6.53;5.10;;;;;;;8.33;88.23;99041.08;1795102;79;21152;-61
2021/04/17 06:46:56;;;;;;;8.48;6.40;;;;;;;8.36;88.09;99033.42;1798204;78;21251;-60
2021/04/17 06:49:27;;;;;;;8.95;5.87;;;;;;;8.34;87.77;99043.22;1795050;78;21116;-63
2021/04/17 06:51:56;;;;;;;9.65;6.85;;;;;;;8.37;88.20;99039.42;1787103;79;21136;-65
2021/04/17 06:54:26;;;;;;;9.00;6.03;;;;;;;8.51;88.44;99041.05;1808009;79;21198;-63
2021/04/17 06:56:54;;;;;;;7.15;5.35;;;;;;;8.61;88.28;99046.39;1807310;78;21099;-62
2021/04/17 06:59:23;;;;;;;8.55;6.20;;;;;;;8.76;88.20;99047.13;1796012;79;21283;-61
2021/04/17 07:01:53;;;;;;;8.88;6.15;;;;;;;8.86;88.10;99051.61;1795075;79;21207;-62
2021/04/17 07:04:21;;;;;;;6.40;5.00;;;;;;;8.99;87.76;99049.27;1802781;79;21214;-63
2021/04/17 07:06:49;;;;;;;9.13;5.08;;;;;;;9.05;87.14;99054.52;1780176;80;21126;-61
2021/04/17 07:09:16;;;;;;;9.08;5.80;;;;;;;9.10;87.06;99056.33;1788940;79;21107;-64
2021/04/17 07:11:45;;;;;;;7.55;5.12;;;;;;;9.16;86.79;99062.04;1797898;79;21292;-60
2021/04/17 07:14:16;;;;;;;7.58;5.55;;;;;;;9.28;86.68;99066.09;1795425;78;21250;-61
2021/04/17 07:17:03;;;;;;;7.30;4.83;;;;;;;9.43;86.77;99065.50;1794771;79;21274;-64
2021/04/17 07:19:49;;;;;;;6.12;4.25;;;;;;;9.66;86.76;99068.45;1789998;79;21318;-63
2021/04/17 07:22:29;;;;;;;6.95;4.87;;;;;;;9.88;85.81;99065.81;1780307;79;21153;-63
2021/04/17 07:25:11;;;;;;;6.37;4.45;;;;;;;10.02;84.41;99064.71;1796987;79;21157;-64
2021/04/17 07:27:43;;;;;;;7.10;3.58;;;;;;;10.14;83.66;99070.48;1780269;79;21182;-64
2021/04/17 07:30:23;;;;;;;6.45;4.53;;;;;;;10.27;83.27;99072.38;1795143;79;21136;-64
2021/04/17 07:33:19;;;;;;;6.37;4.20;;;;;;;10.42;82.77;99076.92;1782612;79;21320;-61
2021/04/17 07:35:48;;;;;;;6.55;4.03;;;;;;;10.61;82.03;99077.61;1779972;80;21111;-63
2021/04/17 07:38:25;;;;;;;5.20;3.58;;;;;;;10.70;81.58;99079.42;1753491;81;21125;-64
2021/04/17 07:41:06;;;;;;;4.90;3.10;;;;;;;10.65;80.11;99084.52;1780329;79;21111;-62
2021/04/17 07:43:52;;;;;;;5.45;3.40;;;;;;;10.21;79.50;99089.94;1798314;78;21126;-64
2021/04/17 07:46:27;;;;;;;7.58;2.87;;;;;;;9.69;79.91;99086.97;1799554;78;21119;-63
2021/04/17 07:49:18;;;;;;;7.03;3.58;;;;;;;9.32;80.44;99093.65;1798018;78;21518;-62
2021/04/17 07:52:13;;;;;;;6.35;3.83;;;;;;;9.25;81.19;99092.22;1780703;80;21317;-64
2021/04/17 07:55:08;;;;;;;4.80;3.08;;;;;;;9.37;81.64;99087.72;1793476;79;21669;-63
2021/04/17 07:57:45;;;;;;;4.97;3.05;;;;;;;9.58;81.52;99093.23;1780596;80;21557;-63
2021/04/17 08:00:18;;;;;;;5.08;3.00;;;;;;;9.70;81.07;99089.58;1792256;78;21704;-64
2021/04/17 08:02:51;;;;;;;4.85;3.35;;;;;;;9.76;80.01;99089.67;1795280;79;21111;-63
2021/04/17 08:05:22;;;;;;;6.42;3.42;;;;;;;9.62;79.62;99093.75;1793242;79;21723;-63
2021/04/17 08:07:53;;;;;;;5.50;3.52;;;;;;;9.61;80.00;99097.14;1805584;77;21268;-61
2021/04/17 08:10:22;;;;;;;5.85;3.75;;;;;;;9.67;80.11;99099.84;1782354;77;21114;-62
2021/04/17 08:12:50;;;;;;;6.90;3.85;;;;;;;9.70;80.12;99097.31;1797373;79;21158;-63
2021/04/17 08:15:21;;;;;;;6.00;4.05;;;;;;;9.70;80.03;99097.31;1813017;78;21159;-63
2021/04/17 08:17:50;;;;;;;6.80;3.92;;;;;;;9.72;80.31;99095.63;1812026;78;21111;-64
2021/04/17 08:20:21;;;;;;;7.55;4.33;;;;;;;9.64;80.03;99098.51;1812619;79;21162;-64
2021/04/17 08:22:51;;;;;;;7.47;4.47;;;;;;;9.55;80.14;99104.78;1786523;79;21292;-61
2021/04/17 08:25:24;;;;;;;10.13;5.47;;;;;;;9.54;80.51;99099.16;1766837;80;21731;-62
2021/04/17 08:27:52;;;;;;;7.97;4.90;;;;;;;9.51;80.38;99104.27;1763977;80;21130;-61
2021/04/17 08:30:26;;;;;;;7.42;5.30;;;;;;;9.47;80.34;99103.36;1764009;80;21157;-62
2021/04/17 08:32:56;;;;;;;6.75;4.87;;;;;;;9.44;80.25;99102.03;1763491;80;21150;-65
2021/04/17 08:35:25;;;;;;;7.50;4.45;;;;;;;9.40;80.59;99105.38;1754835;80;21280;-63
2021/04/17 08:38:02;;;;;;;6.67;4.60;;;;;;;9.46;80.80;99108.47;1766478;80;21158;-63
2021/04/17 08:40:40;;;;;;;7.40;4.75;;;;;;;9.53;80.87;99109.03;1765847;79;21284;-63
2021/04/17 08:43:17;;;;;;;8.28;4.70;;;;;;;9.61;80.76;99107.45;1765547;80;21171;-63
2021/04/17 08:46:13;;;;;;;7.90;5.05;;;;;;;9.71;80.61;99107.19;1764080;80;21136;-63
2021/04/17 08:48:55;;;;;;;9.48;5.03;;;;;;;9.80;80.46;99106.50;1764050;80;21150;-63
2021/04/17 08:51:29;;;;;;;7.45;5.55;;;;;;;9.85;80.43;99112.16;1764283;80;21138;-64
2021/04/17 08:54:06;;;;;;;8.28;6.03;;;;;;;9.87;80.21;99109.20;1757888;80;21162;-63
2021/04/17 08:56:53;;;;;;;8.90;6.12;;;;;;;9.76;79.69;99111.57;1777073;80;21301;-64
2021/04/17 08:59:32;;;;;;;10.38;6.42;;;;;;;9.68;79.74;99115.73;1781117;79;21545;-64
2021/04/17 09:02:08;;;;;;;10.68;6.70;;;;;;;9.67;79.83;99110.58;1776625;79;21347;-63
2021/04/17 09:05:05;;;;;;;10.00;6.85;;;;;;;9.62;79.93;99106.63;1762640;80;21155;-64
2021/04/17 09:07:43;;;;;;;10.15;5.85;;;;;;;9.63;80.11;99110.06;1773192;80;21201;-63
2021/04/17 09:10:28;;;;;;;9.95;5.80;;;;;;;9.62;79.97;99111.78;1768788;80;21271;-63
2021/04/17 09:13:20;;;;;;;8.53;5.87;;;;;;;9.60;80.18;99113.45;1766296;80;21180;-64
2021/04/17 09:16:00;;;;;;;;;;;;;;;9.63;80.62;99112.64;1759693;80;21226;-64
2021/04/17 09:18:38;;;;;;;9.38;5.45;;;;;;;9.70;80.46;99113.20;1756716;80;20262;-65
2021/04/17 09:21:24;;;;;;;8.50;5.60;;;;;;;9.57;79.70;99114.70;1756755;80;21214;-62
2021/04/17 09:23:55;;;;;;;8.88;6.37;;;;;;;9.29;80.34;99117.20;1756637;80;21222;-63
2021/04/17 09:26:36;;;;;;;10.68;6.45;;;;;;;9.00;80.83;99115.34;1757144;80;21166;-63
2021/04/17 09:29:15;;;;;;;10.53;7.72;;;;;;;8.72;81.50;99114.78;1758049;80;21181;-64
2021/04/17 09:31:45;;;;;;;14.25;7.67;;;;;;;8.52;82.59;99118.22;1758224;82;21146;-64
2021/04/17 09:34:16;;;;;;;11.12;7.45;;;;;;;8.42;83.38;99115.89;1758118;80;21276;-62
2021/04/17 09:36:49;;;;;;;11.45;7.95;;;;;;;8.29;84.55;99124.11;1758037;80;21154;-64
2021/04/17 09:39:33;;;;;;;13.18;9.80;;;;;;;8.15;85.61;99120.38;1758334;80;21138;-63
2021/04/17 09:42:04;;;;;;;17.07;9.50;;;;;;;8.05;86.22;99118.86;1758042;80;21295;-63
2021/04/17 09:44:49;;;;;;;12.55;8.03;;;;;;;7.96;86.97;99114.81;1758125;81;21142;-64
2021/04/17 09:47:18;;;;;;;13.78;7.92;;;;;;;7.88;87.09;99112.45;1758103;80;21288;-64
2021/04/17 09:49:49;;;;;;;10.40;7.40;;;;;;;7.88;87.62;99122.73;1758210;82;21178;-62
2021/04/17 09:52:20;;;;;;;11.10;8.03;;;;;;;7.90;87.76;99128.78;1758552;81;21715;-64
2021/04/17 09:55:05;;;;;;;10.30;7.35;;;;;;;7.81;88.08;99132.39;1758306;80;21130;-63
2021/04/17 09:57:33;;;;;;;14.50;9.35;;;;;;;7.80;88.42;99135.39;1758206;80;21332;-63
2021/04/17 10:00:04;;;;;;;11.95;7.95;;;;;;;7.86;88.61;99133.80;1758006;80;21280;-62
2021/04/17 10:02:48;;;;;;;15.85;11.55;;;;;;;7.89;88.70;99132.19;1758207;80;21158;-63
2021/04/17 10:05:32;;;;;;;13.98;8.50;;;;;;;7.87;88.63;99140.70;1758181;80;21272;-63
2021/04/17 10:08:01;;;;;;;15.43;9.10;;;;;;;7.91;88.20;99137.34;1751177;80;21166;-62
2021/04/17 10:10:38;;;;;;;11.73;8.35;;;;;;;7.85;87.86;99140.64;1750370;80;21304;-64
2021/04/17 10:13:05;;;;;;;14.65;9.35;;;;;;;7.77;87.97;99143.45;1749997;80;21155;-64
2021/04/17 10:15:37;;;;;;;12.43;8.88;;;;;;;7.73;88.04;99144.19;1750011;80;21166;-64
2021/04/17 10:18:05;;;;;;;12.03;8.75;;;;;;;7.70;88.35;99141.55;1750193;80;21150;-64
2021/04/17 10:20:42;;;;;;;12.98;8.75;;;;;;;7.78;88.73;99146.45;1750141;82;21158;-64
2021/04/17 10:23:09;;;;;;;12.13;9.33;;;;;;;7.86;88.67;99152.68;1750144;80;21162;-62
2021/04/17 10:25:43;;;;;;;13.03;10.05;;;;;;;8.04;88.22;99150.55;1750136;80;21139;-62
2021/04/17 10:28:22;;;;;;;16.12;10.13;;;;;;;8.24;87.79;99148.84;1694025;83;21164;-63
2021/04/17 10:30:55;;;;;;;13.55;10.03;;;;;;;8.35;87.15;99147.41;1750313;80;21692;-65
2021/04/17 10:33:25;;;;;;;16.00;10.65;;;;;;;8.40;87.02;99153.98;1750016;80;21154;-64
2021/04/17 10:35:56;;;;;;;20.68;13.98;;;;;;;8.46;86.95;99152.39;1694521;83;21173;-64
2021/04/17 10:38:36;;;;;;;23.80;16.42;;;;;;;8.52;86.99;99152.08;1750325;80;21288;-63
2021/04/17 10:41:05;;;;;;;27.60;18.02;;;;;;;8.56;86.96;99156.47;1749984;81;21181;-63
2021/04/17 10:43:34;;;;;;;23.42;16.95;;;;;;;8.56;87.02;99159.04;1694345;83;21178;-61
2021/04/17 10:46:05;;;;;;;26.17;18.42;;;;;;;8.56;87.02;99158.62;1750066;80;21161;-62
2021/04/17 10:48:46;;;;;;;27.90;18.90;;;;;;;8.56;87.22;99161.61;1694336;83;21168;-64
2021/04/17 10:51:17;;;;;;;28.73;18.92;;;;;;;8.56;87.40;99159.91;1750115;81;21301;-64
2021/04/17 10:53:49;;;;;;;24.20;16.02;;;;;;;8.58;87.65;99162.52;1694480;83;21148;-62
2021/04/17 10:56:19;;;;;;;;;;;;;;;8.46;87.31;99174.25;1752731;81;21143;-63
2021/04/17 10:58:54;;;;;;;31.23;19.40;;;;;;;8.33;87.69;99167.06;1749992;80;20223;-65
2021/04/17 11:01:25;;;;;;;26.40;18.50;;;;;;;8.18;88.14;99171.85;1743137;80;21142;-64
2021/04/17 11:03:58;;;;;;;29.70;19.55;;;;;;;8.15;88.49;99170.08;1694419;83;21714;-64
2021/04/17 11:06:32;;;;;;;27.00;18.87;;;;;;;8.17;88.77;99172.70;1750930;80;21366;-63
2021/04/17 11:09:19;;;;;;;29.15;18.37;;;;;;;8.17;88.87;99172.70;1727343;82;21313;-63
2021/04/17 11:12:00;;;;;;;27.30;18.25;;;;;;;8.13;89.10;99175.59;1692906;83;21266;-64
2021/04/17 11:14:30;;;;;;;30.10;19.57;;;;;;;8.27;89.45;99174.66;1692813;83;21299;-63
2021/04/17 11:16:57;;;;;;;29.02;20.00;;;;;;;8.35;89.17;99173.13;1692941;83;21180;-64
2021/04/17 11:19:33;;;;;;;26.87;18.20;;;;;;;8.44;89.57;99177.20;1692709;83;21169;-63
2021/04/17 11:22:23;;;;;;;21.37;13.55;;;;;;;8.63;89.53;99172.50;1692977;83;21168;-63
2021/04/17 11:25:03;;;;;;;19.20;13.05;;;;;;;8.63;88.27;99171.20;1692658;83;21314;-64
2021/04/17 11:27:34;;;;;;;25.02;15.60;;;;;;;8.45;88.14;99176.39;1692736;83;21317;-62
2021/04/17 11:30:06;;;;;;;15.18;10.60;;;;;;;8.30;88.84;99183.72;1692908;83;21180;-64
2021/04/17 11:32:36;;;;;;;12.90;8.05;;;;;;;8.34;89.51;99176.92;1692705;83;21160;-65
2021/04/17 11:35:09;;;;;;;11.38;7.72;;;;;;;8.38;89.45;99182.61;1692994;83;21302;-63
2021/04/17 11:37:37;;;;;;;11.25;7.50;;;;;;;8.37;89.62;99182.14;1693053;83;21204;-64
2021/04/17 11:40:06;;;;;;;10.72;7.05;;;;;;;8.48;89.53;99185.45;1700605;83;21189;-64
2021/04/17 11:42:33;;;;;;;8.98;6.53;;;;;;;8.59;89.34;99183.54;1730234;82;21126;-62
2021/04/17 11:45:01;;;;;;;10.75;6.83;;;;;;;8.66;88.99;99178.98;1736728;82;21406;-62
2021/04/17 11:47:29;;;;;;;9.45;6.42;;;;;;;8.69;88.92;99180.33;1727964;83;21161;-63
2021/04/17 11:49:57;;;;;;;9.20;6.55;;;;;;;8.74;88.82;99186.45;1739121;82;21359;-63
2021/04/17 11:52:25;;;;;;;12.18;8.50;;;;;;;8.84;88.74;99189.67;1738942;81;21178;-63
2021/04/17 11:54:53;;;;;;;9.70;7.30;;;;;;;8.94;88.46;99192.45;1757650;82;21138;-63